Time;durP1;ratioP1;P1;durP2;ratioP2;P2;SDS_P1;SDS_P2;PMS_P1;PMS_P2;Temp;Humidity;BMP_temperature;BMP_pressure;BME280_temperature;BME280_humidity;BME280_pressure;Samples;Min_cycle;Max_cycle;Signal;HPM_P1;HPM_P2
2023/05/16 00:00:08;;;;;;;6.38;4.05;;;17.50;99.90;;;;;;5074129;28;20210;-82
2023/05/16 00:02:39;;;;;;;5.45;4.22;;;17.60;99.90;;;;;;5071892;28;20832;-82
2023/05/16 00:05:13;;;;;;;8.13;4.10;;;17.70;99.90;;;;;;5072224;28;20207;-81
2023/05/16 00:07:48;;;;;;;5.95;3.85;;;17.80;99.90;;;;;;5075195;28;20226;-82
2023/05/16 00:10:19;;;;;;;5.13;3.88;;;17.80;99.90;;;;;;5071631;28;20245;-83
2023/05/16 00:12:51;;;;;;;7.32;4.50;;;17.80;99.90;;;;;;5074767;28;20255;-83
2023/05/16 00:15:22;;;;;;;6.95;4.05;;;17.90;99.90;;;;;;5083223;28;20218;-81
2023/05/16 00:17:57;;;;;;;8.05;4.07;;;18.00;99.90;;;;;;5072737;28;20204;-82
2023/05/16 00:20:28;;;;;;;6.07;4.18;;;18.10;99.90;;;;;;5075341;28;20269;-82
2023/05/16 00:23:01;;;;;;;9.90;4.53;;;18.10;99.90;;;;;;5088947;28;20658;-83
2023/05/16 00:25:33;;;;;;;6.60;4.13;;;18.20;99.90;;;;;;5093425;28;20196;-83
2023/05/16 00:28:04;;;;;;;6.95;3.95;;;18.30;99.90;;;;;;5087873;28;20211;-82
2023/05/16 00:30:35;;;;;;;8.85;3.95;;;18.30;99.90;;;;;;5087548;28;20204;-83
2023/05/16 00:33:06;;;;;;;5.93;4.53;;;18.40;99.90;;;;;;5086005;28;20205;-82
2023/05/16 00:35:37;;;;;;;5.43;3.88;;;18.40;99.90;;;;;;5093956;28;20199;-83
2023/05/16 00:38:11;;;;;;;8.23;4.25;;;18.40;99.90;;;;;;5091145;28;20597;-83
2023/05/16 00:40:42;;;;;;;7.93;3.75;;;18.50;99.90;;;;;;5093063;28;20340;-83
2023/05/16 00:43:13;;;;;;;6.75;4.20;;;18.60;99.90;;;;;;5093355;28;20206;-82
2023/05/16 00:45:45;;;;;;;7.18;3.95;;;18.70;99.90;;;;;;5090099;28;20193;-83
2023/05/16 00:48:17;;;;;;;9.35;4.07;;;18.80;99.90;;;;;;5091861;28;20586;-82
2023/05/16 00:50:48;;;;;;;8.32;3.85;;;18.90;99.90;;;;;;5069305;28;20204;-82
2023/05/16 00:53:22;;;;;;;6.35;3.72;;;18.80;99.90;;;;;;5073944;28;20227;-82
2023/05/16 00:55:54;;;;;;;6.53;4.20;;;18.90;99.90;;;;;;5072926;28;20196;-82
2023/05/16 00:58:26;;;;;;;6.70;3.58;;;18.90;99.90;;;;;;5086044;28;20195;-83
2023/05/16 01:00:58;;;;;;;8.00;3.97;;;19.00;99.90;;;;;;5080669;28;20195;-83
2023/05/16 01:03:29;;;;;;;6.70;3.80;;;19.10;99.90;;;;;;5085836;28;20219;-82
2023/05/16 01:06:00;;;;;;;7.57;4.28;;;19.20;99.90;;;;;;5085087;28;20208;-82
2023/05/16 01:08:33;;;;;;;6.40;3.80;;;19.30;99.90;;;;;;5092933;28;20249;-82
2023/05/16 01:11:14;;;;;;;7.07;3.65;;;19.40;99.90;;;;;;5087724;28;20200;-82
2023/05/16 01:13:52;;;;;;;6.93;3.35;;;19.60;99.90;;;;;;5092742;28;20195;-81
2023/05/16 01:16:28;;;;;;;8.35;3.95;;;19.60;99.90;;;;;;5088638;28;20661;-82
2023/05/16 01:19:16;;;;;;;4.38;3.40;;;19.70;99.90;;;;;;5088965;28;20600;-81
2023/05/16 01:21:56;;;;;;;6.13;3.50;;;19.80;99.90;;;;;;5078454;28;20251;-82
2023/05/16 01:24:41;;;;;;;5.68;3.03;;;19.80;99.90;;;;;;5064884;28;20203;-82
2023/05/16 01:27:15;;;;;;;6.13;3.60;;;19.90;99.90;;;;;;5071903;28;20218;-82
2023/05/16 01:29:46;;;;;;;5.15;3.30;;;20.10;99.90;;;;;;5069773;28;20228;-83
2023/05/16 01:32:19;;;;;;;5.47;2.97;;;20.10;99.90;;;;;;5072692;28;20200;-83
2023/05/16 01:34:50;;;;;;;4.65;2.95;;;20.20;99.90;;;;;;5072388;28;20206;-82
2023/05/16 01:37:27;;;;;;;6.50;2.17;;;20.30;99.90;;;;;;5071956;28;20188;-82
2023/05/16 01:40:06;;;;;;;3.70;1.80;;;20.40;99.90;;;;;;5069831;28;20210;-83
2023/05/16 01:42:42;;;;;;;3.35;1.73;;;20.30;99.90;;;;;;5071710;28;20195;-82
2023/05/16 01:45:22;;;;;;;2.10;1.40;;;20.30;99.90;;;;;;5071263;28;20217;-83
2023/05/16 01:48:03;;;;;;;2.42;1.98;;;20.30;99.90;;;;;;5071767;28;20254;-82
2023/05/16 01:50:37;;;;;;;4.07;1.67;;;20.30;99.90;;;;;;5062331;28;20219;-82
2023/05/16 01:53:14;;;;;;;3.85;1.55;;;20.50;99.90;;;;;;5065458;28;20195;-83
2023/05/16 01:55:47;;;;;;;2.40;1.48;;;20.50;99.90;;;;;;5071248;28;20196;-82
2023/05/16 01:58:22;;;;;;;1.95;1.20;;;20.50;99.90;;;;;;5089764;28;20199;-83
2023/05/16 02:00:54;;;;;;;1.88;1.50;;;20.60;99.90;;;;;;5065489;28;20208;-83
2023/05/16 02:03:26;;;;;;;2.47;1.63;;;20.70;99.90;;;;;;5062898;28;20705;-83
2023/05/16 02:05:57;;;;;;;2.78;1.30;;;20.80;99.90;;;;;;5071628;28;20204;-83
2023/05/16 02:08:28;;;;;;;4.00;1.55;;;20.80;99.90;;;;;;5067115;28;20221;-85
2023/05/16 02:10:59;;;;;;;3.15;1.60;;;20.80;99.90;;;;;;5052006;28;20667;-84
2023/05/16 02:13:32;;;;;;;1.55;1.42;;;20.90;99.90;;;;;;5056151;28;20681;-83
2023/05/16 02:16:03;;;;;;;2.08;1.48;;;21.00;99.90;;;;;;5067200;28;20204;-83
2023/05/16 02:18:34;;;;;;;2.85;1.60;;;21.10;99.90;;;;;;5069777;28;20192;-83
2023/05/16 02:21:05;;;;;;;1.67;1.48;;;21.20;99.90;;;;;;5079025;28;20242;-83
2023/05/16 02:23:36;;;;;;;3.65;1.67;;;21.20;99.90;;;;;;5086859;28;20192;-83
2023/05/16 02:26:07;;;;;;;1.73;1.60;;;21.40;99.90;;;;;;5070738;28;20207;-82
2023/05/16 02:28:40;;;;;;;1.80;1.30;;;21.40;99.90;;;;;;5072509;28;20234;-83
2023/05/16 02:31:12;;;;;;;2.63;1.10;;;21.40;99.90;;;;;;5086453;28;20195;-82
2023/05/16 02:33:43;;;;;;;3.40;1.60;;;21.50;99.90;;;;;;5088943;28;20201;-83
2023/05/16 02:36:14;;;;;;;1.83;1.40;;;21.50;99.90;;;;;;5086455;28;20214;-83
2023/05/16 02:38:45;;;;;;;1.60;1.45;;;21.60;99.90;;;;;;5088543;28;20199;-82
2023/05/16 02:41:16;;;;;;;1.77;1.17;;;21.60;99.90;;;;;;5087126;28;20199;-82
2023/05/16 02:43:50;;;;;;;3.25;1.60;;;21.60;99.90;;;;;;5088762;28;20252;-82
2023/05/16 02:46:26;;;;;;;1.48;1.38;;;21.70;99.90;;;;;;5089227;28;20194;-83
2023/05/16 02:48:58;;;;;;;2.38;1.50;;;21.80;99.90;;;;;;5082819;28;20614;-82
2023/05/16 02:51:29;;;;;;;2.65;1.20;;;21.90;99.90;;;;;;5085315;28;20195;-82
2023/05/16 02:54:00;;;;;;;1.42;1.20;;;21.90;99.90;;;;;;5077971;28;20196;-82
2023/05/16 02:56:31;;;;;;;2.65;1.33;;;21.90;99.90;;;;;;5085942;28;20196;-82
2023/05/16 02:59:05;;;;;;;1.20;1.10;;;22.00;99.90;;;;;;5091498;28;20686;-82
2023/05/16 03:01:36;;;;;;;1.35;1.25;;;21.90;99.90;;;;;;5079509;28;20203;-82
2023/05/16 03:04:07;;;;;;;3.60;1.65;;;22.00;99.90;;;;;;5069723;28;20211;-83
2023/05/16 03:06:38;;;;;;;1.95;1.40;;;21.90;99.90;;;;;;5090712;28;20205;-83
2023/05/16 03:09:09;;;;;;;3.55;1.42;;;22.00;99.90;;;;;;5088172;28;20219;-82
2023/05/16 03:11:43;;;;;;;1.92;1.20;;;22.00;99.90;;;;;;5090582;28;20195;-83
2023/05/16 03:14:16;;;;;;;2.58;1.25;;;22.00;99.90;;;;;;5080058;28;20197;-83
2023/05/16 03:16:47;;;;;;;1.20;1.10;;;22.00;99.90;;;;;;5091319;28;20309;-83
2023/05/16 03:19:18;;;;;;;1.85;1.20;;;22.10;99.90;;;;;;5092120;28;20199;-83
2023/05/16 03:21:49;;;;;;;2.17;1.10;;;22.10;99.90;;;;;;5093614;28;20226;-83
2023/05/16 03:24:21;;;;;;;1.08;1.00;;;22.10;99.90;;;;;;5094560;28;20210;-82
2023/05/16 03:26:54;;;;;;;2.08;1.10;;;22.10;99.90;;;;;;5092150;28;20666;-82
2023/05/16 03:29:27;;;;;;;2.25;1.35;;;22.10;99.90;;;;;;5074052;28;20227;-83
2023/05/16 03:32:02;;;;;;;3.03;1.58;;;22.10;99.90;;;;;;5096251;28;20234;-83
2023/05/16 03:34:33;;;;;;;3.15;1.13;;;22.10;99.90;;;;;;5093308;28;20210;-83
2023/05/16 03:37:05;;;;;;;1.85;1.23;;;22.00;99.90;;;;;;5086056;28;20245;-83
2023/05/16 03:39:36;;;;;;;2.72;1.42;;;21.90;99.90;;;;;;5087314;28;20283;-83
2023/05/16 03:42:08;;;;;;;1.20;1.10;;;21.90;99.90;;;;;;5096050;28;20681;-83
2023/05/16 03:44:41;;;;;;;2.25;1.02;;;21.70;99.90;;;;;;5093008;28;20538;-84
2023/05/16 03:47:12;;;;;;;2.00;1.10;;;21.70;99.90;;;;;;5092961;28;20688;-83
2023/05/16 03:49:43;;;;;;;1.30;1.05;;;21.70;99.90;;;;;;5093068;28;20246;-83
2023/05/16 03:52:15;;;;;;;1.45;1.10;;;21.70;99.90;;;;;;5093976;28;20205;-83
2023/05/16 03:54:46;;;;;;;1.75;1.15;;;21.70;99.90;;;;;;5093535;28;20192;-83
2023/05/16 03:57:17;;;;;;;1.45;1.10;;;21.70;99.90;;;;;;5095160;28;20222;-83
2023/05/16 03:59:50;;;;;;;1.73;1.10;;;21.60;99.90;;;;;;5090066;28;20227;-83
2023/05/16 04:02:21;;;;;;;1.30;1.05;;;21.70;99.90;;;;;;5094159;28;20226;-83
2023/05/16 04:04:52;;;;;;;1.70;1.25;;;21.70;99.90;;;;;;5093907;28;20192;-83
2023/05/16 04:07:23;;;;;;;2.45;1.10;;;21.70;99.90;;;;;;5097446;28;20199;-83
2023/05/16 04:09:57;;;;;;;1.63;1.08;;;21.70;99.90;;;;;;5096945;28;20230;-83
2023/05/16 04:12:28;;;;;;;1.48;1.15;;;21.70;99.90;;;;;;5096462;28;20198;-84
2023/05/16 04:15:01;;;;;;;3.17;1.30;;;21.60;99.90;;;;;;5097981;28;20191;-84
2023/05/16 04:17:35;;;;;;;2.08;1.30;;;21.60;99.90;;;;;;5077975;28;20253;-83
2023/05/16 04:20:08;;;;;;;2.55;1.20;;;21.60;99.90;;;;;;5095022;28;20202;-83
2023/05/16 04:22:39;;;;;;;1.45;1.13;;;21.60;99.90;;;;;;5094607;28;20238;-83
2023/05/16 04:25:11;;;;;;;2.60;1.20;;;21.50;99.90;;;;;;5089369;28;20566;-83
2023/05/16 04:27:42;;;;;;;1.83;1.20;;;21.50;99.90;;;;;;5077543;28;20196;-83
2023/05/16 04:30:16;;;;;;;1.88;1.30;;;21.60;99.90;;;;;;5090334;28;20245;-83
2023/05/16 04:32:47;;;;;;;1.33;1.00;;;21.50;99.90;;;;;;5095641;28;20191;-83
2023/05/16 04:35:21;;;;;;;2.50;1.10;;;21.50;99.90;;;;;;5094718;28;20203;-81
2023/05/16 04:37:52;;;;;;;3.67;1.27;;;21.40;99.40;;;;;;5093136;28;20202;-83
2023/05/16 04:40:24;;;;;;;2.72;1.13;;;21.40;99.00;;;;;;5091725;28;20192;-83
2023/05/16 04:42:55;;;;;;;1.88;1.10;;;21.40;98.00;;;;;;5095581;28;20196;-83
2023/05/16 04:45:30;;;;;;;3.42;1.50;;;21.40;97.40;;;;;;5087088;28;20196;-83
2023/05/16 04:48:01;;;;;;;1.25;0.93;;;21.40;96.80;;;;;;5092618;28;20673;-84
2023/05/16 04:50:32;;;;;;;1.25;1.15;;;21.30;96.10;;;;;;5094292;28;20598;-84
2023/05/16 04:53:03;;;;;;;1.00;0.90;;;21.30;96.30;;;;;;5090060;28;20199;-82
2023/05/16 04:55:34;;;;;;;1.98;1.10;;;21.30;96.30;;;;;;5089766;28;20199;-83
2023/05/16 04:58:07;;;;;;;1.73;0.98;;;21.30;95.90;;;;;;5092581;28;20199;-83
2023/05/16 05:00:40;;;;;;;1.20;1.00;;;21.30;95.10;;;;;;5093811;28;20183;-83
2023/05/16 05:03:11;;;;;;;1.88;1.00;;;21.20;94.30;;;;;;5088979;28;20192;-83
2023/05/16 05:05:42;;;;;;;1.20;1.02;;;21.20;93.40;;;;;;5096749;28;20569;-85
2023/05/16 05:08:13;;;;;;;2.47;1.00;;;21.20;92.60;;;;;;5094807;28;20207;-83
2023/05/16 05:10:48;;;;;;;2.53;1.10;;;21.20;91.60;;;;;;5095188;28;20230;-83
2023/05/16 05:13:19;;;;;;;1.30;0.95;;;21.30;91.50;;;;;;5091255;28;20187;-83
2023/05/16 05:15:53;;;;;;;1.15;0.90;;;21.30;92.00;;;;;;5094490;28;20706;-83
2023/05/16 05:18:25;;;;;;;1.88;1.20;;;21.30;92.60;;;;;;5082145;28;20257;-83
2023/05/16 05:20:56;;;;;;;2.35;0.90;;;21.20;91.90;;;;;;5090776;28;20219;-83
2023/05/16 05:23:27;;;;;;;2.35;0.88;;;21.20;92.30;;;;;;5095278;28;20282;-82
2023/05/16 05:25:59;;;;;;;1.70;1.30;;;21.20;90.00;;;;;;5089717;28;20200;-83
2023/05/16 05:28:30;;;;;;;1.65;1.00;;;21.20;89.40;;;;;;5091682;28;20211;-85
2023/05/16 05:31:04;;;;;;;4.32;1.00;;;21.20;89.50;;;;;;5093628;28;20219;-82
2023/05/16 05:33:36;;;;;;;1.45;0.90;;;21.20;90.00;;;;;;5093954;28;20207;-82
2023/05/16 05:36:07;;;;;;;2.10;1.08;;;21.30;90.20;;;;;;5089597;28;20289;-84
2023/05/16 05:38:38;;;;;;;2.00;1.02;;;21.30;91.10;;;;;;5101575;28;20680;-83
2023/05/16 05:41:10;;;;;;;1.02;0.73;;;21.30;91.20;;;;;;5100547;28;20203;-83
2023/05/16 05:43:41;;;;;;;1.27;0.90;;;21.40;91.20;;;;;;5088197;28;20230;-83
2023/05/16 05:46:15;;;;;;;3.17;1.00;;;21.40;91.00;;;;;;5089686;28;20203;-84
2023/05/16 05:48:46;;;;;;;2.38;1.08;;;21.40;91.90;;;;;;5086365;28;20192;-83
2023/05/16 05:51:20;;;;;;;3.42;1.10;;;21.50;91.30;;;;;;5089941;28;20227;-83
2023/05/16 05:53:51;;;;;;;2.78;1.00;;;21.50;93.10;;;;;;5086012;28;20202;-83
2023/05/16 05:56:23;;;;;;;2.83;1.13;;;21.50;92.80;;;;;;5090420;28;20567;-83
2023/05/16 05:58:56;;;;;;;1.17;1.00;;;21.50;92.80;;;;;;5089970;28;20225;-83
2023/05/16 06:01:30;;;;;;;3.13;0.95;;;21.50;93.00;;;;;;5085336;28;20191;-83
2023/05/16 06:04:01;;;;;;;1.20;1.10;;;21.40;93.60;;;;;;5088735;28;20196;-83
2023/05/16 06:06:32;;;;;;;2.00;1.33;;;21.40;94.60;;;;;;5090545;28;20655;-84
2023/05/16 06:09:03;;;;;;;1.00;0.90;;;21.50;95.70;;;;;;5091627;28;20662;-82
2023/05/16 06:11:34;;;;;;;1.70;1.10;;;21.50;96.30;;;;;;5090661;28;20199;-83
2023/05/16 06:14:05;;;;;;;4.20;1.30;;;21.60;96.90;;;;;;5092436;28;20196;-83
2023/05/16 06:16:39;;;;;;;1.10;1.00;;;21.70;96.70;;;;;;5091017;28;20199;-83
2023/05/16 06:19:11;;;;;;;1.60;1.17;;;21.70;97.90;;;;;;5092367;28;20198;-83
2023/05/16 06:21:42;;;;;;;1.85;1.10;;;21.70;97.90;;;;;;5091450;28;20219;-84
2023/05/16 06:24:13;;;;;;;1.38;1.10;;;21.70;98.30;;;;;;5090503;28;20191;-83
2023/05/16 06:26:49;;;;;;;2.03;1.27;;;21.70;98.90;;;;;;5088576;28;20208;-83
2023/05/16 06:29:20;;;;;;;1.33;1.20;;;21.60;99.60;;;;;;5097887;28;20202;-83
2023/05/16 06:31:53;;;;;;;2.75;1.38;;;21.50;99.90;;;;;;5097694;28;20198;-84
2023/05/16 06:34:26;;;;;;;1.45;1.20;;;21.40;99.90;;;;;;5092285;28;20203;-83
2023/05/16 06:36:58;;;;;;;1.55;1.10;;;21.30;99.90;;;;;;5090386;28;20187;-84
2023/05/16 06:39:29;;;;;;;1.42;1.08;;;21.20;99.90;;;;;;5087570;28;20749;-83
2023/05/16 06:42:02;;;;;;;1.55;1.30;;;21.00;99.90;;;;;;5076337;28;20196;-84
2023/05/16 06:44:33;;;;;;;2.05;1.35;;;21.00;99.90;;;;;;5078012;28;20195;-83
2023/05/16 06:47:06;;;;;;;1.23;1.10;;;20.80;99.90;;;;;;5075184;28;20218;-83
2023/05/16 06:49:39;;;;;;;1.30;1.20;;;20.70;99.90;;;;;;5089426;28;20195;-84
2023/05/16 06:52:10;;;;;;;1.67;1.10;;;20.60;99.90;;;;;;5088602;28;20195;-84
2023/05/16 06:54:42;;;;;;;2.28;1.42;;;20.50;99.90;;;;;;5087703;28;20258;-84
2023/05/16 06:57:13;;;;;;;1.70;1.17;;;20.40;99.90;;;;;;5089541;28;20248;-83
2023/05/16 06:59:44;;;;;;;3.00;1.20;;;20.40;99.90;;;;;;5091538;28;20554;-84
2023/05/16 07:02:17;;;;;;;1.70;1.23;;;20.30;99.90;;;;;;5089550;28;20577;-84
2023/05/16 07:04:48;;;;;;;1.60;1.20;;;20.20;99.90;;;;;;5112007;28;20546;-83
2023/05/16 07:07:19;;;;;;;2.47;1.45;;;20.10;99.90;;;;;;5089380;28;20277;-84
2023/05/16 07:09:50;;;;;;;1.73;1.20;;;20.10;99.90;;;;;;5088768;28;20693;-83
2023/05/16 07:12:21;;;;;;;1.52;1.40;;;20.10;99.90;;;;;;5091986;28;20198;-83
2023/05/16 07:14:52;;;;;;;1.75;1.30;;;20.00;99.90;;;;;;5092107;28;20245;-83
2023/05/16 07:17:25;;;;;;;2.65;1.30;;;20.00;99.90;;;;;;5090190;28;20577;-83
2023/05/16 07:19:56;;;;;;;1.67;1.40;;;19.90;99.90;;;;;;5090978;28;20199;-83
2023/05/16 07:22:28;;;;;;;2.75;1.20;;;19.90;99.90;;;;;;5091543;28;20226;-84
2023/05/16 07:24:59;;;;;;;1.63;1.40;;;19.80;99.90;;;;;;5089343;28;20557;-84
2023/05/16 07:27:33;;;;;;;3.10;1.33;;;19.80;99.90;;;;;;5091729;28;20191;-83
2023/05/16 07:30:08;;;;;;;1.95;1.40;;;19.80;99.90;;;;;;5091501;28;20219;-83
2023/05/16 07:32:41;;;;;;;3.85;1.50;;;19.70;99.90;;;;;;5085274;28;20778;-82
2023/05/16 07:35:12;;;;;;;2.70;1.40;;;19.70;99.90;;;;;;5086327;28;20209;-82
2023/05/16 07:37:44;;;;;;;2.08;1.20;;;19.70;99.90;;;;;;5102191;28;20194;-83
2023/05/16 07:40:17;;;;;;;2.10;1.30;;;19.70;99.90;;;;;;5096636;28;20203;-82
2023/05/16 07:42:48;;;;;;;2.88;1.40;;;19.70;99.90;;;;;;5091237;28;20210;-82
2023/05/16 07:45:19;;;;;;;2.78;1.55;;;19.60;99.90;;;;;;5088018;28;20203;-82
2023/05/16 07:47:52;;;;;;;2.60;1.40;;;19.60;99.90;;;;;;5086787;28;20200;-81
2023/05/16 07:50:23;;;;;;;2.03;1.48;;;19.60;99.90;;;;;;5091554;28;20223;-83
2023/05/16 07:52:54;;;;;;;3.55;1.80;;;19.50;99.90;;;;;;5087445;28;20202;-83
2023/05/16 07:55:25;;;;;;;2.70;1.60;;;19.50;99.90;;;;;;5089683;28;20200;-84
2023/05/16 07:57:56;;;;;;;2.45;1.48;;;19.50;99.90;;;;;;5091211;28;20206;-83
2023/05/16 08:00:28;;;;;;;2.92;1.70;;;19.50;99.90;;;;;;5088316;28;20199;-83
2023/05/16 08:03:01;;;;;;;1.88;1.42;;;19.50;99.90;;;;;;5088575;28;20199;-83
2023/05/16 08:05:32;;;;;;;4.32;2.00;;;19.40;99.90;;;;;;5091017;28;20191;-84
2023/05/16 08:08:03;;;;;;;2.85;1.90;;;19.40;99.90;;;;;;5100742;28;20209;-84
2023/05/16 08:10:34;;;;;;;5.30;2.10;;;19.30;99.90;;;;;;5089587;28;20222;-83
2023/05/16 08:13:05;;;;;;;4.13;2.42;;;19.30;99.90;;;;;;5083285;28;20192;-82
2023/05/16 08:15:36;;;;;;;5.63;2.55;;;19.30;99.90;;;;;;5094780;28;20203;-84
2023/05/16 08:18:15;;;;;;;3.83;2.60;;;19.30;99.90;;;;;;5093795;28;20191;-84
2023/05/16 08:20:47;;;;;;;4.40;3.10;;;19.20;99.90;;;;;;5090325;28;20716;-84
2023/05/16 08:23:21;;;;;;;6.00;3.40;;;19.20;99.90;;;;;;5077276;28;20203;-84
2023/05/16 08:25:53;;;;;;;4.00;2.72;;;19.10;99.90;;;;;;5090824;28;20601;-84
2023/05/16 08:28:24;;;;;;;3.03;2.20;;;19.10;99.90;;;;;;5105083;28;20199;-84
2023/05/16 08:30:55;;;;;;;7.32;2.53;;;19.00;99.90;;;;;;5092631;28;20219;-83
2023/05/16 08:33:28;;;;;;;3.42;2.22;;;19.00;99.90;;;;;;5091518;28;20191;-83
2023/05/16 08:36:00;;;;;;;2.95;2.25;;;19.00;99.90;;;;;;5091682;28;20206;-83
2023/05/16 08:38:31;;;;;;;3.78;2.63;;;18.90;99.90;;;;;;5091652;28;20204;-84
2023/05/16 08:41:02;;;;;;;4.65;2.70;;;18.90;99.90;;;;;;5093675;28;20210;-83
2023/05/16 08:43:35;;;;;;;3.00;2.50;;;18.90;99.90;;;;;;5091193;28;20191;-83
2023/05/16 08:46:08;;;;;;;9.20;2.72;;;18.90;99.90;;;;;;5094284;28;20238;-82
2023/05/16 08:48:46;;;;;;;4.72;2.40;;;18.80;99.90;;;;;;5091872;28;20219;-84
2023/05/16 08:51:22;;;;;;;4.38;2.15;;;18.80;99.90;;;;;;5083255;28;20226;-83
2023/05/16 08:54:01;;;;;;;3.80;2.70;;;18.80;99.90;;;;;;5090449;28;20241;-84
2023/05/16 08:56:34;;;;;;;8.32;2.60;;;18.80;99.90;;;;;;5093516;28;20646;-84
2023/05/16 08:59:06;;;;;;;4.57;3.00;;;18.80;99.90;;;;;;5086619;28;20234;-84
2023/05/16 09:01:37;;;;;;;4.00;2.70;;;18.70;99.90;;;;;;5092664;28;20194;-85
2023/05/16 09:04:11;;;;;;;4.78;2.97;;;18.70;99.90;;;;;;5090325;28;20195;-85
2023/05/16 09:06:43;;;;;;;5.82;2.97;;;18.70;99.90;;;;;;5091788;28;20201;-85
2023/05/16 09:09:14;;;;;;;7.25;3.47;;;18.70;99.90;;;;;;5090470;28;20199;-83
2023/05/16 09:11:45;;;;;;;4.97;3.28;;;18.70;99.90;;;;;;5093210;28;20250;-84
2023/05/16 09:14:16;;;;;;;4.80;3.08;;;18.70;99.90;;;;;;5090331;28;20203;-83
2023/05/16 09:17:04;;;;;;;6.80;3.00;;;18.60;99.90;;;;;;5091168;28;20195;-84
2023/05/16 09:19:41;;;;;;;3.45;2.78;;;18.60;99.90;;;;;;5105944;28;20194;-84
2023/05/16 09:22:14;;;;;;;5.10;2.90;;;18.60;99.90;;;;;;5092341;28;20234;-83
2023/05/16 09:24:46;;;;;;;5.72;2.50;;;18.60;99.90;;;;;;5090661;28;20191;-84
2023/05/16 09:27:18;;;;;;;4.78;3.05;;;18.60;99.90;;;;;;5092754;28;20211;-83
2023/05/16 09:29:53;;;;;;;4.95;2.90;;;18.60;99.90;;;;;;5093175;28;20275;-84
2023/05/16 09:32:26;;;;;;;6.03;3.05;;;18.60;99.90;;;;;;5090739;28;20261;-84
2023/05/16 09:34:59;;;;;;;4.63;2.63;;;18.60;99.90;;;;;;5093159;28;20592;-84
2023/05/16 09:37:30;;;;;;;4.20;2.58;;;18.60;99.90;;;;;;5072522;28;20212;-84
2023/05/16 09:40:02;;;;;;;4.95;2.60;;;18.60;99.90;;;;;;5076286;28;20654;-84
2023/05/16 09:42:34;;;;;;;5.70;2.70;;;18.50;99.90;;;;;;5090514;28;20214;-84
2023/05/16 09:45:05;;;;;;;5.05;3.00;;;18.60;99.90;;;;;;5092382;28;20195;-84
2023/05/16 09:47:44;;;;;;;4.70;2.95;;;18.60;99.90;;;;;;5091108;28;20684;-84
2023/05/16 09:50:18;;;;;;;5.15;3.15;;;18.60;99.90;;;;;;5088635;28;20637;-84
2023/05/16 09:52:49;;;;;;;4.85;2.78;;;18.60;99.90;;;;;;5096048;28;20200;-84
2023/05/16 09:55:20;;;;;;;4.70;3.17;;;18.60;99.90;;;;;;5086138;28;20192;-84
2023/05/16 09:57:51;;;;;;;5.13;3.28;;;18.50;99.90;;;;;;5092034;28;20635;-84
2023/05/16 10:00:23;;;;;;;4.90;3.30;;;18.50;99.90;;;;;;5089971;28;20195;-84
2023/05/16 10:02:57;;;;;;;5.55;3.20;;;18.50;99.90;;;;;;5090919;28;20276;-84
2023/05/16 10:05:31;;;;;;;5.53;3.20;;;18.50;99.90;;;;;;5090086;28;20205;-84
2023/05/16 10:08:04;;;;;;;9.18;3.60;;;18.50;99.90;;;;;;5092161;28;20188;-84
2023/05/16 10:10:40;;;;;;;5.72;3.33;;;18.50;99.90;;;;;;5089459;28;20589;-84
2023/05/16 10:13:12;;;;;;;6.90;3.22;;;18.50;99.90;;;;;;5088878;28;20236;-84
2023/05/16 10:15:44;;;;;;;3.55;2.88;;;18.50;99.90;;;;;;5091945;28;20196;-83
2023/05/16 10:18:18;;;;;;;4.68;2.90;;;18.50;99.90;;;;;;5091976;28;20199;-84
2023/05/16 10:20:55;;;;;;;4.35;2.90;;;18.50;99.90;;;;;;5089162;28;20271;-84
2023/05/16 10:23:29;;;;;;;5.20;2.40;;;18.50;99.90;;;;;;5092104;28;20637;-83
2023/05/16 10:26:04;;;;;;;4.30;2.47;;;18.50;99.90;;;;;;5089758;28;20534;-84
2023/05/16 10:28:36;;;;;;;5.13;2.60;;;18.50;99.90;;;;;;5071401;28;20558;-84
2023/05/16 10:31:11;;;;;;;4.75;2.45;;;18.40;99.90;;;;;;5083239;28;20230;-82
2023/05/16 10:33:43;;;;;;;4.93;2.33;;;18.50;99.90;;;;;;5090209;28;20191;-82
2023/05/16 10:36:18;;;;;;;3.92;2.70;;;18.50;99.90;;;;;;5089400;28;20196;-85
2023/05/16 10:38:51;;;;;;;4.32;2.90;;;18.40;99.90;;;;;;5075501;28;20200;-84
2023/05/16 10:41:24;;;;;;;5.22;2.92;;;18.40;99.90;;;;;;5089502;28;20673;-84
2023/05/16 10:44:01;;;;;;;7.35;3.30;;;18.30;99.90;;;;;;5102012;28;20194;-83
2023/05/16 10:46:34;;;;;;;4.55;3.17;;;18.30;99.90;;;;;;5100372;28;20199;-85
2023/05/16 10:49:24;;;;;;;4.53;2.97;;;18.30;99.90;;;;;;5091680;28;20191;-86
2023/05/16 10:52:16;;;;;;;5.80;3.10;;;18.30;99.90;;;;;;5092084;28;20219;-86
2023/05/16 10:54:56;;;;;;;4.65;3.10;;;18.30;99.90;;;;;;5093940;28;20244;-86
2023/05/16 10:57:27;;;;;;;8.00;3.15;;;18.20;99.90;;;;;;5093619;28;20682;-86
2023/05/16 11:00:02;;;;;;;6.03;3.00;;;18.20;99.90;;;;;;5094695;28;20309;-89
2023/05/16 11:02:35;;;;;;;6.22;2.58;;;18.20;99.90;;;;;;5073144;28;20237;-87
2023/05/16 11:05:14;;;;;;;6.43;2.72;;;18.20;99.90;;;;;;5075498;28;20188;-86
2023/05/16 11:08:04;;;;;;;4.68;2.70;;;18.20;99.90;;;;;;5083420;28;20200;-85
2023/05/16 11:10:35;;;;;;;4.20;2.50;;;18.20;99.90;;;;;;5073244;28;20744;-85
2023/05/16 11:13:11;;;;;;;3.88;2.60;;;18.10;99.90;;;;;;5073976;28;20203;-86
2023/05/16 11:15:42;;;;;;;4.63;2.75;;;18.10;99.90;;;;;;5073831;28;20593;-86
2023/05/16 11:18:19;;;;;;;4.72;2.90;;;18.10;99.90;;;;;;5083049;28;20574;-85
2023/05/16 11:20:55;;;;;;;5.97;3.03;;;18.00;99.90;;;;;;5087349;28;20227;-85
2023/05/16 11:23:30;;;;;;;8.05;3.63;;;18.00;99.90;;;;;;5072266;28;20635;-85
2023/05/16 11:26:03;;;;;;;5.95;3.47;;;17.80;99.90;;;;;;5083803;28;20195;-85
2023/05/16 11:28:34;;;;;;;5.13;3.25;;;17.80;99.90;;;;;;5087418;28;20574;-86
2023/05/16 11:31:06;;;;;;;6.43;3.47;;;17.80;99.90;;;;;;5091323;28;20195;-86
2023/05/16 11:33:39;;;;;;;6.38;3.42;;;17.70;99.90;;;;;;5093596;28;20191;-86
2023/05/16 11:36:11;;;;;;;5.82;3.30;;;17.70;99.90;;;;;;5092769;28;20195;-86
2023/05/16 11:38:44;;;;;;;6.28;3.92;;;17.60;99.90;;;;;;5079604;28;20283;-85
2023/05/16 11:41:18;;;;;;;5.22;3.60;;;17.50;99.90;;;;;;5076458;28;20199;-86
2023/05/16 11:43:50;;;;;;;6.50;3.72;;;17.50;99.90;;;;;;5093457;28;20207;-85
2023/05/16 11:46:21;;;;;;;6.60;3.85;;;17.40;99.90;;;;;;5091965;28;20665;-85
2023/05/16 11:48:52;;;;;;;5.47;3.65;;;17.40;99.90;;;;;;5074659;28;20547;-85
2023/05/16 11:51:23;;;;;;;6.35;3.60;;;17.30;99.90;;;;;;5077420;28;20338;-86
2023/05/16 11:53:56;;;;;;;6.40;3.42;;;17.30;99.90;;;;;;5092074;28;20195;-85
2023/05/16 11:56:28;;;;;;;6.28;3.70;;;17.30;99.90;;;;;;5077482;28;20214;-85
2023/05/16 11:58:59;;;;;;;5.47;3.53;;;17.20;99.90;;;;;;5076382;28;20192;-85
2023/05/16 12:01:36;;;;;;;6.72;3.60;;;17.20;99.90;;;;;;5076337;28;20650;-85
2023/05/16 12:04:12;;;;;;;7.00;3.80;;;17.20;99.90;;;;;;5076702;28;20203;-85
2023/05/16 12:06:46;;;;;;;7.07;4.15;;;17.10;99.90;;;;;;5077779;28;20184;-84
2023/05/16 12:09:21;;;;;;;8.43;3.92;;;17.10;99.90;;;;;;5097515;28;20280;-84
2023/05/16 12:11:53;;;;;;;7.28;3.90;;;17.00;99.90;;;;;;5117460;28;20210;-86
2023/05/16 12:14:25;;;;;;;5.70;4.00;;;17.00;99.90;;;;;;5078473;28;20200;-86
2023/05/16 12:16:57;;;;;;;10.52;4.45;;;16.90;99.90;;;;;;5075778;28;20196;-84
2023/05/16 12:19:28;;;;;;;6.38;4.00;;;16.80;99.90;;;;;;5076145;28;20192;-85
2023/05/16 12:22:03;;;;;;;6.82;4.40;;;16.90;99.90;;;;;;5090845;28;20721;-85
2023/05/16 12:24:37;;;;;;;6.38;4.25;;;16.90;99.90;;;;;;5089185;28;20203;-86
2023/05/16 12:27:09;;;;;;;7.05;4.10;;;16.90;99.90;;;;;;5096674;28;20575;-86
2023/05/16 12:29:41;;;;;;;7.53;4.28;;;16.90;99.90;;;;;;5094795;28;20192;-86
2023/05/16 12:32:21;;;;;;;10.50;4.53;;;16.90;99.90;;;;;;5095661;28;20218;-86
2023/05/16 12:34:56;;;;;;;6.55;4.07;;;16.90;99.90;;;;;;5097381;28;20546;-86
2023/05/16 12:37:29;;;;;;;6.68;4.00;;;16.90;99.90;;;;;;5096549;28;20225;-86
2023/05/16 12:40:07;;;;;;;8.48;4.32;;;17.00;99.90;;;;;;5098035;28;20209;-86
2023/05/16 12:42:40;;;;;;;7.20;4.45;;;16.90;99.90;;;;;;5096276;28;20206;-87
2023/05/16 12:45:19;;;;;;;7.90;4.18;;;16.90;99.90;;;;;;5097052;28;20183;-86
2023/05/16 12:47:52;;;;;;;6.00;3.95;;;16.80;99.90;;;;;;5098131;28;20213;-86
2023/05/16 12:50:24;;;;;;;4.90;2.92;;;16.80;99.90;;;;;;5077179;28;20192;-87
2023/05/16 12:53:00;;;;;;;7.13;2.78;;;16.80;99.90;;;;;;5079196;28;20216;-87
2023/05/16 12:55:37;;;;;;;6.07;2.75;;;16.90;99.90;;;;;;5077319;28;20192;-86
2023/05/16 12:58:08;;;;;;;8.70;2.80;;;16.90;99.90;;;;;;5076710;28;20191;-85
2023/05/16 13:00:39;;;;;;;10.48;2.35;;;17.10;99.90;;;;;;5081304;28;20658;-85
2023/05/16 13:03:10;;;;;;;15.18;2.60;;;17.10;99.90;;;;;;5096680;28;20206;-85
2023/05/16 13:05:42;;;;;;;10.60;2.90;;;17.20;99.90;;;;;;5096767;28;20203;-86
2023/05/16 13:08:13;;;;;;;13.40;2.95;;;17.30;99.90;;;;;;5096300;28;20207;-85
2023/05/16 13:10:49;;;;;;;11.85;2.92;;;17.30;99.90;;;;;;5075971;28;20208;-85
2023/05/16 13:13:20;;;;;;;12.65;2.90;;;17.30;99.90;;;;;;5076606;28;20215;-85